Latest Weather Observations for Gladstone Airport

IDQ60801

Issued at 2:32 pm EST Saturday 22 February 2020 (issued every 10 minutes, with the page automatically refreshed every 10 minutes)

About weather observations | Map of weather stations | Latest weather observations for QLD | Other Formats
Station Details ID: 039326 Name: GLADSTONE AIRPORT Lat: -23.87 Lon: 151.22 Height: 16.6 m
Data from the previous 72 hours. | See also: Recent months at Gladstone Airport
Date/Time
EST
Temp
°C
App
Temp
°C
Dew
Point
°C
Rel
Hum
%
Delta-T
°C
Wind Press
QNH
hPa
Press
MSL
hPa
Rain since
9am
mm
Dir  Spd
km/h
Gust
km/h
Spd
kts
Gust
kts
22/02:30pm 28.1 26.6 20.9 65 4.8 ESE 30 41 16 22 1014.4 1014.3 1.8
22/02:00pm 28.1 25.7 21.1 65 4.6 ESE 35 48 19 26 1014.8 1014.7 1.8
22/01:30pm 28.0 26.3 21.3 67 4.5 ESE 32 44 17 24 1015.1 1015.0 1.8
22/01:00pm 28.0 26.2 22.2 70 3.9 ESE 35 50 19 27 1015.1 1015.0 1.8
22/12:30pm 27.6 28.4 23.2 77 3.0 ESE 24 33 13 18 1015.3 1015.2 1.8
22/12:28pm 27.6 28.8 23.8 80 2.6 SE 24 32 13 17 1015.4 1015.3 1.8
22/12:16pm 26.7 26.2 22.8 79 2.6 ESE 30 43 16 23 1015.4 1015.3 1.8
22/12:05pm 27.6 27.4 22.8 75 3.3 ESE 28 46 15 25 1015.6 1015.5 1.2
22/12:00pm 28.2 26.8 22.0 69 4.2 ESE 32 43 17 23 1015.6 1015.5 1.2
22/11:30am 28.6 27.2 22.3 68 4.3 ESE 33 46 18 25 1015.8 1015.7 1.2
22/11:22am 28.8 28.4 22.3 68 4.4 ESE 28 46 15 25 1015.7 1015.6 1.2
22/11:00am 28.5 30.3 23.2 73 3.6 ESE 19 39 10 21 1015.8 1015.7 1.2
22/10:40am 26.4 29.9 23.5 84 2.0 SSE 11 15 6 8 1016.2 1016.1 1.2
22/10:30am 25.9 28.9 23.4 86 1.7 SE 13 20 7 11 1016.2 1016.1 1.2
22/10:22am 26.0 27.7 23.1 84 2.0 ESE 19 26 10 14 1016.5 1016.4 0.8
22/10:00am 26.1 27.5 22.8 82 2.2 SE 20 28 11 15 1016.5 1016.4 0.2
22/09:30am 27.0 29.4 23.7 82 2.3 SE 17 24 9 13 1016.3 1016.2 0.0
22/09:00am 26.3 29.4 23.6 85 1.8 SE 13 20 7 11 1016.2 1016.1 79.6
22/08:30am 25.9 29.7 23.4 86 1.7 SSE 9 17 5 9 1016.0 1015.9 79.4
22/08:00am 25.7 28.5 23.0 85 1.8 SSE 13 20 7 11 1015.6 1015.5 79.4
22/07:30am 25.5 28.7 23.0 86 1.7 SE 11 17 6 9 1015.2 1015.1 79.4
22/07:00am 25.0 29.2 23.2 90 1.2 SSE 6 9 3 5 1014.8 1014.7 79.4
22/06:30am 25.2 28.6 23.4 90 1.2 SSE 11 15 6 8 1014.4 1014.3 79.0
22/06:00am 24.8 28.9 23.2 91 1.1 SSE 7 11 4 6 1014.1 1014.0 78.8
22/05:30am 24.8 28.9 23.2 91 1.1 SSE 7 13 4 7 1013.9 1013.8 78.6
22/05:00am 24.8 28.6 23.4 92 1.0 SSE 9 15 5 8 1013.4 1013.3 78.6
22/04:30am 24.7 28.4 23.3 92 1.0 S 9 13 5 7 1013.4 1013.3 78.0
22/04:00am 24.8 28.3 23.6 93 0.8 SSE 11 17 6 9 1013.3 1013.2 78.0
22/03:30am 24.9 26.8 23.5 92 1.0 ESE 19 24 10 13 1012.7 1012.6 76.8
22/03:21am 24.8 27.2 23.6 93 0.8 SE 17 24 9 13 1012.7 1012.6 76.4
22/03:00am 24.5 27.9 23.3 93 0.8 SSE 11 19 6 10 1013.4 1013.3 75.2
22/02:59am 24.4 27.7 23.2 93 0.8 SSE 11 19 6 10 1013.4 1013.3 75.0
22/02:57am 24.3 27.5 23.1 93 0.8 S 11 17 6 9 1013.5 1013.4 74.8
22/02:30am 23.6 24.3 22.2 92 0.9 S 22 37 12 20 1013.2 1013.1 72.6
22/02:12am 24.7 27.2 23.1 91 1.1 SSE 15 24 8 13 1013.4 1013.3 64.4
22/02:00am 24.8 27.3 23.2 91 1.1 SSE 15 24 8 13 1013.5 1013.4 62.6
22/01:30am 24.7 27.9 23.1 91 1.1 S 11 19 6 10 1013.3 1013.2 58.6
22/01:22am 24.7 27.6 23.1 91 1.1 SSE 13 22 7 12 1013.4 1013.3 57.8
22/01:00am 24.9 27.9 23.3 91 1.1 SSE 13 22 7 12 1013.4 1013.3 56.2
22/12:46am 25.0 27.3 23.4 91 1.1 SSE 17 30 9 16 1013.5 1013.4 55.8
22/12:30am 25.1 28.7 23.7 92 1.0 SSE 11 19 6 10 1013.4 1013.3 55.6
22/12:00am 25.1 28.5 24.1 94 0.7 SSE 13 19 7 10 1013.8 1013.7 55.4
 
Date/Time
EST
Temp
°C
App
Temp
°C
Dew
Point
°C
Rel
Hum
%
Delta-T
°C
Wind Press
QNH
hPa
Press
MSL
hPa
Rain since
9am
mm
Dir  Spd
km/h
Gust
km/h
Spd
kts
Gust
kts
21/11:30pm 24.5 28.0 23.5 94 0.7 SE 11 19 6 10 1013.9 1013.8 55.4
21/11:20pm 24.3 27.3 23.3 94 0.7 SSE 13 19 7 10 1013.8 1013.7 55.2
21/11:02pm 23.7 26.6 22.5 93 0.8 S 11 15 6 8 1013.8 1013.7 54.6
21/11:00pm 23.7 26.6 22.5 93 0.8 S 11 15 6 8 1013.8 1013.7 54.4
21/10:37pm 23.1 21.4 21.4 90 1.1 ESE 32 50 17 27 1015.2 1015.1 41.8
21/10:31pm 23.1 20.4 21.9 93 0.8 ESE 39 57 21 31 1015.0 1014.9 29.0
21/10:30pm 23.1 20.0 21.9 93 0.8 ESE 41 57 22 31 1015.0 1014.9 26.8
21/10:25pm 23.5 20.9 22.1 92 0.9 SE 39 57 21 31 1014.3 1014.2 15.8
21/10:17pm 24.4 23.1 22.1 87 1.5 SE 32 50 17 27 1014.0 1013.9 3.0
21/10:16pm 24.7 23.8 22.2 86 1.7 SE 30 43 16 23 1014.0 1013.9 2.0
21/10:09pm 26.2 26.4 22.1 78 2.7 SE 24 39 13 21 1014.0 1013.9 1.0
21/10:00pm 27.2 30.6 23.4 80 2.6 SE 11 17 6 9 1013.8 1013.7 1.0
21/09:30pm 26.8 28.1 22.4 77 3.0 ESE 19 28 10 15 1013.6 1013.5 1.0
21/09:00pm 28.5 30.4 23.4 74 3.5 ENE 19 26 10 14 1013.3 1013.2 1.0
21/08:30pm 28.3 31.1 23.7 76 3.2 E 15 20 8 11 1013.0 1012.9 1.0
21/08:00pm 28.3 30.2 23.7 76 3.2 E 20 26 11 14 1012.5 1012.4 1.0
21/07:30pm 28.3 29.6 24.1 78 2.9 E 24 30 13 16 1012.1 1012.0 1.0
21/07:00pm 28.3 30.5 24.3 79 2.8 E 20 30 11 16 1011.7 1011.6 1.0
21/06:30pm 28.0 29.3 24.0 79 2.8 E 24 30 13 16 1011.3 1011.2 1.0
21/06:00pm 29.4 31.5 23.1 69 4.3 E 17 24 9 13 1011.2 1011.1 0.2
21/05:30pm 29.6 31.7 23.8 71 4.0 ENE 19 26 10 14 1010.7 1010.6 0.2
21/05:00pm 29.9 31.2 23.3 67 4.5 E 22 28 12 15 1010.5 1010.4 0.2
21/04:30pm 30.3 32.2 23.7 68 4.6 E 20 26 11 14 1010.2 1010.1 0.2
21/04:00pm 29.9 32.3 23.6 69 4.4 ENE 17 22 9 12 1010.2 1010.1 0.2
21/03:30pm 29.7 31.4 23.4 69 4.3 ENE 20 28 11 15 1010.6 1010.5 0.2
21/03:00pm 30.7 32.7 23.6 66 4.9 E 19 24 10 13 1010.1 1010.0 0.2
21/02:30pm 30.0 31.2 22.2 63 5.3 ENE 19 28 10 15 1010.4 1010.3 0.2
21/02:00pm 31.3 32.2 23.4 63 5.5 E 24 33 13 18 1010.8 1010.7 0.2
21/01:30pm 31.9 32.7 23.2 60 6.0 ENE 24 33 13 18 1011.1 1011.0 0.2
21/01:00pm 31.6 33.4 24.2 65 5.2 ENE 22 30 12 16 1011.2 1011.1 0.2
21/12:30pm 31.8 34.2 23.6 62 5.7 ENE 17 30 9 16 1011.4 1011.3 0.2
21/12:00pm 32.3 33.6 22.4 56 6.8 E 19 28 10 15 1011.7 1011.6 0.2
21/11:30am 31.8 32.9 21.3 53 7.1 ENE 17 24 9 13 1011.9 1011.8 0.2
21/11:00am 31.9 34.4 23.2 60 6.0 E 15 22 8 12 1012.0 1011.9 0.2
21/10:30am 31.3 34.3 23.4 63 5.5 E 13 20 7 11 1012.1 1012.0 0.2
21/10:00am 31.0 34.7 23.9 66 4.9 ESE 11 17 6 9 1012.2 1012.1 0.2
21/09:30am 30.2 33.3 22.9 65 5.0 ESE 11 15 6 8 1012.5 1012.4 0.0
21/09:00am 29.3 32.5 22.3 66 4.7 E 9 13 5 7 1012.4 1012.3 1.6
21/08:30am 29.0 33.3 22.7 69 4.3 ESE 4 9 2 5 1012.0 1011.9 1.6
21/08:00am 28.3 32.5 24.1 78 2.9 E 9 11 5 6 1011.9 1011.8 1.6
21/07:30am 27.2 31.8 23.2 79 2.7 NE 4 11 2 6 1011.6 1011.5 1.6
21/07:10am 26.6 31.8 22.9 80 2.5 CALM 0 6 0 3 1011.5 1011.4 1.6
21/07:00am 26.5 30.6 23.0 81 2.4 N 6 7 3 4 1011.4 1011.3 1.6
21/06:42am 26.8 31.2 24.5 87 1.6 N 9 17 5 9 1011.3 1011.2 1.6
21/06:30am 26.9 31.3 23.8 83 2.1 SSE 7 11 4 6 1010.9 1010.8 1.6
21/06:00am 26.6 30.6 23.7 84 2.0 SSE 9 13 5 7 1010.5 1010.4 1.6
21/05:30am 26.3 30.8 23.6 85 1.8 SW 6 7 3 4 1010.2 1010.1 1.6
21/05:00am 26.3 30.5 23.4 84 2.0 SSE 7 9 4 5 1009.8 1009.7 1.4
21/04:30am 26.2 30.3 23.3 84 2.0 SSW 7 9 4 5 1009.7 1009.6 1.4
21/04:00am 26.0 30.2 23.1 84 2.0 SSW 6 7 3 4 1009.5 1009.4 1.4
21/03:30am 25.9 29.8 23.0 84 2.0 SSW 7 9 4 5 1009.3 1009.2 1.4
21/03:00am 26.1 30.2 23.0 83 2.1 SSE 6 6 3 3 1009.1 1009.0 1.4
21/02:30am 26.2 30.4 23.1 83 2.1 S 6 7 3 4 1009.1 1009.0 1.4
21/02:00am 26.1 31.0 23.0 83 2.1 SSE 2 7 1 4 1009.3 1009.2 1.4
21/01:30am 26.0 31.1 22.7 82 2.2 CALM 0 0 0 0 1009.4 1009.3 1.4
21/01:00am 26.2 31.4 22.9 82 2.2 CALM 0 0 0 0 1009.6 1009.5 1.4
21/12:30am 26.4 30.3 22.9 81 2.4 ESE 7 7 4 4 1009.6 1009.5 1.4
21/12:00am 26.2 30.2 22.1 78 2.8 SSE 4 7 2 4 1010.0 1009.9 1.4
 
Date/Time
EST
Temp
°C
App
Temp
°C
Dew
Point
°C
Rel
Hum
%
Delta-T
°C
Wind Press
QNH
hPa
Press
MSL
hPa
Rain since
9am
mm
Dir  Spd
km/h
Gust
km/h
Spd
kts
Gust
kts
20/11:30pm 26.2 30.8 21.8 77 2.9 CALM 0 0 0 0 1010.5 1010.4 1.4
20/11:00pm 26.1 29.5 22.0 78 2.7 SSW 7 11 4 6 1010.4 1010.3 1.4
20/10:30pm 26.5 29.5 21.3 73 3.5 SSW 7 9 4 5 1010.1 1010.0 1.4
20/10:00pm 26.4 29.6 21.6 75 3.2 S 7 9 4 5 1009.9 1009.8 1.4
20/09:30pm 26.8 30.3 21.8 74 3.3 SSW 6 9 3 5 1009.9 1009.8 1.4
20/09:00pm 26.7 30.0 21.9 75 3.2 SW 7 7 4 4 1009.5 1009.4 1.4
20/08:30pm 27.1 31.1 21.4 71 3.8 SW 2 7 1 4 1008.9 1008.8 1.4
20/08:00pm 27.4 30.7 20.7 67 4.4 S 4 6 2 3 1008.6 1008.5 1.4
20/07:30pm 27.5 30.6 21.5 70 4.0 S 7 9 4 5 1008.5 1008.4 1.4
20/07:00pm 27.7 31.1 21.7 70 4.0 SSE 6 13 3 7 1007.8 1007.7 1.4
20/06:30pm 27.8 31.4 22.3 72 3.7 SSW 7 11 4 6 1007.4 1007.3 1.4
20/06:00pm 28.7 32.1 21.0 63 5.1 NNE 4 7 2 4 1006.6 1006.5 1.4
20/05:30pm 28.4 31.7 21.9 68 4.4 S 7 11 4 6 1006.2 1006.1 1.4
20/05:02pm 27.5 29.3 21.8 71 3.8 NNE 15 26 8 14 1006.3 1006.2 1.4
20/05:00pm 27.2 28.1 20.8 68 4.2 ENE 17 41 9 22 1006.5 1006.4 1.4
20/04:43pm 26.5 26.4 21.5 74 3.3 E 24 50 13 27 1007.0 1006.9 0.8
20/04:32pm 29.0 28.1 21.5 64 5.0 SE 28 37 15 20 1006.6 1006.5 0.0
20/04:30pm 29.1 28.0 20.3 59 5.8 SE 26 37 14 20 1006.6 1006.5 0.0
20/04:00pm 32.7 34.0 23.3 57 6.5 NE 22 30 12 16 1005.5 1005.4 0.0
20/03:51pm 32.4 33.4 22.8 57 6.6 NE 22 30 12 16 1005.7 1005.6 0.0
20/03:30pm 32.9 33.6 23.0 56 6.8 NE 24 30 13 16 1005.4 1005.3 0.0
20/03:15pm 33.5 34.9 22.9 53 7.3 NE 20 28 11 15 1005.2 1005.1 0.0
20/03:00pm 33.5 34.0 22.6 53 7.5 NNE 24 32 13 17 1005.2 1005.1 0.0
20/02:30pm 33.6 34.7 23.6 56 7.0 NE 24 30 13 16 1005.8 1005.7 0.0
20/02:00pm 33.4 34.3 23.4 55 7.0 NE 24 30 13 16 1005.9 1005.8 0.0
20/01:30pm 33.7 36.1 23.7 56 7.0 ENE 17 22 9 12 1006.3 1006.2 0.0
20/01:00pm 33.1 37.1 23.7 57 6.6 NE 9 17 5 9 1006.6 1006.5 0.0
20/12:30pm 33.6 37.4 22.4 52 7.7 SSE 6 11 3 6 1006.8 1006.7 0.0
20/12:00pm 33.1 35.1 21.6 51 7.8 NNW 13 19 7 10 1007.1 1007.0 0.0
20/11:30am 33.7 35.9 21.8 49 8.1 NW 13 28 7 15 1007.4 1007.3 0.0
20/11:00am 33.7 35.6 22.1 50 7.9 NNW 15 24 8 13 1007.6 1007.5 0.0
20/10:30am 33.0 35.9 21.8 51 7.6 WNW 9 17 5 9 1008.0 1007.9 0.0
20/10:00am 32.0 34.8 21.5 53 7.1 W 9 17 5 9 1008.2 1008.1 0.0
20/09:30am 31.0 32.9 20.6 54 6.9 W 11 17 6 9 1008.4 1008.3 0.0
20/09:00am 30.4 33.2 22.3 62 5.5 W 11 19 6 10 1008.8 1008.7 0.0
20/08:30am 29.7 32.7 22.7 66 4.8 WSW 11 17 6 9 1008.7 1008.6 0.0
20/08:00am 28.8 31.2 22.3 68 4.4 SW 13 20 7 11 1008.6 1008.5 0.0
20/07:30am 28.3 32.0 22.5 71 3.9 WSW 7 9 4 5 1008.4 1008.3 0.0
20/07:00am 27.1 30.8 22.5 76 3.1 SSW 7 9 4 5 1007.9 1007.8 0.0
20/06:30am 26.0 29.7 22.3 80 2.5 SSW 6 7 3 4 1007.7 1007.6 0.0
20/06:00am 25.2 30.0 22.1 83 2.1 CALM 0 0 0 0 1007.1 1007.0 0.0
20/05:30am 25.1 29.4 22.0 83 2.1 SW 2 7 1 4 1006.9 1006.8 0.0
20/05:00am 25.3 28.7 22.0 82 2.2 SSW 7 9 4 5 1006.8 1006.7 0.0
20/04:30am 25.5 29.1 22.0 81 2.3 SW 6 9 3 5 1006.5 1006.4 0.0
20/04:00am 25.3 28.7 22.0 82 2.2 SSW 7 9 4 5 1006.3 1006.2 0.0
20/03:30am 25.7 29.4 22.2 81 2.3 SW 6 9 3 5 1006.1 1006.0 0.0
20/03:00am 26.1 29.9 22.4 80 2.5 SW 6 7 3 4 1006.1 1006.0 0.0
20/02:30am 26.3 30.1 22.4 79 2.6 SSW 6 9 3 5 1006.1 1006.0 0.0
20/02:00am 26.7 30.4 22.5 78 2.8 WSW 7 9 4 5 1006.4 1006.3 0.0
20/01:30am 27.1 32.1 22.5 76 3.1 CALM 0 0 0 0 1006.4 1006.3 0.0
20/01:00am 27.3 31.4 22.3 74 3.4 W 4 7 2 4 1006.9 1006.8 0.0
20/12:30am 27.6 31.2 22.3 73 3.6 WNW 7 9 4 5 1007.4 1007.3 0.0
20/12:00am 28.0 31.1 22.2 70 3.9 NNW 9 13 5 7 1007.7 1007.6 0.0
 
Date/Time
EST
Temp
°C
App
Temp
°C
Dew
Point
°C
Rel
Hum
%
Delta-T
°C
Wind Press
QNH
hPa
Press
MSL
hPa
Rain since
9am
mm
Dir  Spd
km/h
Gust
km/h
Spd
kts
Gust
kts
19/11:30pm 27.8 30.9 22.1 71 3.8 WNW 9 13 5 7 1007.9 1007.8 0.0
19/11:00pm 28.4 31.7 22.6 71 3.9 NNW 9 13 5 7 1007.8 1007.7 0.0
19/10:30pm 28.2 31.7 22.2 70 4.0 N 7 9 4 5 1007.6 1007.5 0.0
19/10:00pm 28.3 31.2 21.8 68 4.4 NNE 9 13 5 7 1007.4 1007.3 0.0
19/09:30pm 28.5 30.7 21.8 67 4.5 N 13 17 7 9 1007.3 1007.2 0.0
19/09:00pm 28.6 31.4 21.6 66 4.7 N 9 11 5 6 1007.7 1007.6 0.0
19/08:30pm 28.8 31.2 21.6 65 4.8 NNE 11 15 6 8 1007.4 1007.3 0.0
19/08:00pm 28.8 31.2 21.6 65 4.8 N 11 15 6 8 1007.1 1007.0 0.0
19/07:30pm 28.8 31.1 21.3 64 5.0 N 11 15 6 8 1006.6 1006.5 0.0
19/07:00pm 29.3 30.8 20.5 59 5.8 NNE 13 20 7 11 1006.1 1006.0 0.0
19/06:30pm 29.5 30.6 20.4 58 6.0 NE 15 19 8 10 1005.8 1005.7 0.0
19/06:00pm 30.3 31.8 20.5 55 6.5 NE 13 17 7 9 1005.7 1005.6 0.0
19/05:30pm 30.4 31.0 20.3 54 6.7 NNE 17 22 9 12 1005.1 1005.0 0.0
19/05:00pm 30.3 31.5 21.4 59 6.0 NE 17 22 9 12 1004.9 1004.8 0.0
19/04:30pm 30.7 31.2 21.2 57 6.4 ENE 20 24 11 13 1005.0 1004.9 0.0
19/04:00pm 31.2 32.0 21.7 57 6.4 ENE 20 26 11 14 1005.0 1004.9 0.0
19/03:30pm 31.3 32.4 22.0 57 6.3 NE 19 24 10 13 1005.2 1005.1 0.0
19/03:00pm 30.8 31.9 21.9 59 6.0 ENE 19 24 10 13 1005.6 1005.5 0.0

Other formats

Comma delimited format used in spreadsheet applications
http://www.bom.gov.au/fwo/IDQ60801/IDQ60801.94381.axf

JavaScript Object Notation format (JSON) in row-major order
http://www.bom.gov.au/fwo/IDQ60801/IDQ60801.94381.json

Data quality

Most of these data are generated automatically and are frequently updated. Quality checks on data are not normally performed. It is possible for incorrect values to appear. Refer to information at About Latest Weather Observations and please check the disclaimer before using these data.